Time;durP1;ratioP1;P1;durP2;ratioP2;P2;SDS_P1;SDS_P2;PMS_P1;PMS_P2;Temp;Humidity;BMP_temperature;BMP_pressure;BME280_temperature;BME280_humidity;BME280_pressure;Samples;Min_cycle;Max_cycle;Signal;HPM_P1;HPM_P2
2023/12/14 00:01:31;;;;;;;7.10;4.70;;;;;;;;;;10301841;28;20094;-76
2023/12/14 00:06:28;;;;;;;4.45;3.83;;;;;;;;;;10310216;28;20049;-76
2023/12/14 00:11:24;;;;;;;5.22;4.50;;;;;;;;;;10306573;28;20520;-76
2023/12/14 00:16:20;;;;;;;5.93;4.60;;;;;;;;;;10301244;28;20409;-75
2023/12/14 00:21:17;;;;;;;4.95;4.43;;;;;;;;;;10301546;28;20056;-75
2023/12/14 00:26:13;;;;;;;6.45;4.57;;;;;;;;;;10304483;28;20128;-75
2023/12/14 00:31:09;;;;;;;7.40;4.78;;;;;;;;;;10292127;28;20056;-75
2023/12/14 00:36:06;;;;;;;4.53;4.13;;;;;;;;;;10299647;28;20512;-76
2023/12/14 00:41:03;;;;;;;4.63;4.15;;;;;;;;;;10305778;28;20446;-75
2023/12/14 00:45:59;;;;;;;5.65;4.35;;;;;;;;;;10304824;28;20048;-76
2023/12/14 00:50:55;;;;;;;6.95;5.15;;;;;;;;;;10310387;28;20040;-75
2023/12/14 00:55:52;;;;;;;6.75;4.75;;;;;;;;;;10278558;28;20065;-75
2023/12/14 01:00:48;;;;;;;5.20;4.20;;;;;;;;;;10304075;28;20423;-75
2023/12/14 01:05:44;;;;;;;5.57;4.65;;;;;;;;;;10304939;28;20054;-76
2023/12/14 01:10:41;;;;;;;6.60;4.07;;;;;;;;;;10296332;28;20052;-75
2023/12/14 01:15:38;;;;;;;4.90;4.32;;;;;;;;;;10287724;28;20497;-76
2023/12/14 01:20:34;;;;;;;7.60;4.25;;;;;;;;;;10300213;28;20045;-76
2023/12/14 01:25:30;;;;;;;8.27;4.20;;;;;;;;;;10305562;28;20107;-75
2023/12/14 01:30:26;;;;;;;5.05;4.28;;;;;;;;;;10301016;28;20054;-74
2023/12/14 01:35:23;;;;;;;7.05;4.18;;;;;;;;;;10289042;28;20044;-75
2023/12/14 01:40:20;;;;;;;6.55;4.47;;;;;;;;;;10297249;28;20056;-76
2023/12/14 01:45:16;;;;;;;7.40;3.90;;;;;;;;;;10306740;28;20390;-76
2023/12/14 01:50:13;;;;;;;5.22;4.50;;;;;;;;;;10282609;28;20049;-76
2023/12/14 01:55:09;;;;;;;4.95;4.07;;;;;;;;;;10282898;28;20134;-76
2023/12/14 02:00:06;;;;;;;6.65;4.28;;;;;;;;;;10298397;28;20103;-75
2023/12/14 02:05:02;;;;;;;7.25;4.07;;;;;;;;;;10309644;28;20055;-76
2023/12/14 02:09:59;;;;;;;8.25;4.70;;;;;;;;;;10296599;28;20619;-76
2023/12/14 02:14:59;;;;;;;6.30;4.15;;;;;;;;;;10307858;28;20098;-75
2023/12/14 02:19:56;;;;;;;4.80;3.97;;;;;;;;;;10293351;28;20043;-76
2023/12/14 02:24:52;;;;;;;4.15;3.50;;;;;;;;;;10289468;28;20049;-76
2023/12/14 02:29:49;;;;;;;6.55;3.55;;;;;;;;;;10305016;28;20109;-76
2023/12/14 02:34:45;;;;;;;9.00;4.10;;;;;;;;;;10294604;28;20045;-76
2023/12/14 02:39:41;;;;;;;8.20;4.38;;;;;;;;;;10299522;28;20045;-75
2023/12/14 02:44:38;;;;;;;6.53;4.55;;;;;;;;;;10305100;28;20052;-76
2023/12/14 02:49:34;;;;;;;7.00;4.45;;;;;;;;;;10301155;28;20062;-75
2023/12/14 02:54:30;;;;;;;5.22;4.07;;;;;;;;;;10319016;28;20056;-75
2023/12/14 02:59:27;;;;;;;4.40;4.00;;;;;;;;;;10316510;28;20071;-75
2023/12/14 03:04:23;;;;;;;5.47;4.13;;;;;;;;;;10296754;28;20048;-74
2023/12/14 03:09:19;;;;;;;4.68;4.13;;;;;;;;;;10273388;28;20067;-76
2023/12/14 03:14:16;;;;;;;4.43;3.70;;;;;;;;;;10289557;28;20048;-76
2023/12/14 03:19:12;;;;;;;4.30;3.90;;;;;;;;;;10306593;28;20428;-75
2023/12/14 03:24:09;;;;;;;5.60;4.50;;;;;;;;;;10310066;28;20049;-76
2023/12/14 03:29:05;;;;;;;6.05;4.65;;;;;;;;;;10280955;28;20428;-75
2023/12/14 03:34:02;;;;;;;4.20;3.80;;;;;;;;;;10291709;28;20049;-73
2023/12/14 03:38:58;;;;;;;9.23;4.45;;;;;;;;;;10315665;28;20051;-76
2023/12/14 03:43:55;;;;;;;7.80;3.65;;;;;;;;;;10311460;28;20056;-75
2023/12/14 03:48:51;;;;;;;4.53;4.13;;;;;;;;;;10299049;28;20051;-76
2023/12/14 03:53:47;;;;;;;4.80;4.05;;;;;;;;;;10307518;28;20131;-76
2023/12/14 03:58:44;;;;;;;6.55;4.00;;;;;;;;;;10308669;28;20045;-74
2023/12/14 04:03:40;;;;;;;4.75;4.22;;;;;;;;;;10276042;28;20052;-75
2023/12/14 04:08:36;;;;;;;5.03;4.53;;;;;;;;;;10295704;28;20051;-75
2023/12/14 04:13:33;;;;;;;5.18;4.65;;;;;;;;;;10300898;28;20071;-75
2023/12/14 04:18:29;;;;;;;5.63;4.20;;;;;;;;;;10304133;28;20102;-76
2023/12/14 04:23:26;;;;;;;5.75;4.32;;;;;;;;;;10312258;28;20060;-75
2023/12/14 04:28:23;;;;;;;5.60;4.50;;;;;;;;;;10301772;28;20079;-74
2023/12/14 04:33:19;;;;;;;8.18;5.05;;;;;;;;;;10311199;28;20049;-75
2023/12/14 04:38:15;;;;;;;6.78;4.60;;;;;;;;;;10288327;28;20048;-76
2023/12/14 04:43:12;;;;;;;8.77;4.80;;;;;;;;;;10304454;28;20057;-75
2023/12/14 04:48:09;;;;;;;8.05;5.28;;;;;;;;;;10302476;28;20060;-75
2023/12/14 04:53:05;;;;;;;7.32;5.20;;;;;;;;;;10301829;28;20550;-76
2023/12/14 04:58:02;;;;;;;11.38;5.43;;;;;;;;;;10311671;28;20113;-74
2023/12/14 05:02:58;;;;;;;7.78;5.20;;;;;;;;;;10300213;28;20041;-76
2023/12/14 05:07:55;;;;;;;8.30;5.80;;;;;;;;;;10302909;28;20037;-75
2023/12/14 05:12:51;;;;;;;8.63;5.85;;;;;;;;;;10310091;28;20582;-76
2023/12/14 05:17:47;;;;;;;10.13;6.10;;;;;;;;;;10293144;28;20052;-75
2023/12/14 05:22:44;;;;;;;6.82;6.10;;;;;;;;;;10311385;28;20397;-75
2023/12/14 05:27:40;;;;;;;9.77;6.38;;;;;;;;;;10317028;28;20052;-75
2023/12/14 05:32:37;;;;;;;11.65;6.32;;;;;;;;;;10301411;28;20040;-76
2023/12/14 05:37:34;;;;;;;8.20;6.38;;;;;;;;;;10306548;28;20045;-74
2023/12/14 05:42:30;;;;;;;8.73;6.18;;;;;;;;;;10295594;28;20571;-76
2023/12/14 05:47:27;;;;;;;8.07;6.05;;;;;;;;;;10303192;28;20052;-74
2023/12/14 05:52:23;;;;;;;7.03;6.32;;;;;;;;;;10314558;28;20068;-75
2023/12/14 05:57:19;;;;;;;9.43;6.32;;;;;;;;;;10307099;28;20048;-76
2023/12/14 06:02:15;;;;;;;7.70;6.95;;;;;;;;;;10288927;28;20075;-76
2023/12/14 06:07:14;;;;;;;10.98;6.97;;;;;;;;;;10292991;28;20463;-76
2023/12/14 06:12:10;;;;;;;8.57;6.68;;;;;;;;;;10297817;28;20056;-75
2023/12/14 06:17:06;;;;;;;7.88;6.95;;;;;;;;;;10306764;28;20044;-76
2023/12/14 06:22:03;;;;;;;9.63;7.85;;;;;;;;;;10298544;28;20159;-75
2023/12/14 06:26:59;;;;;;;8.50;7.30;;;;;;;;;;10309173;28;20468;-75
2023/12/14 06:31:55;;;;;;;10.68;8.02;;;;;;;;;;10303334;28;20059;-74
2023/12/14 06:36:52;;;;;;;10.27;8.43;;;;;;;;;;10301253;28;20059;-75
2023/12/14 06:41:48;;;;;;;9.15;7.80;;;;;;;;;;10297509;28;20041;-76
2023/12/14 06:46:45;;;;;;;10.02;8.48;;;;;;;;;;10292974;28;20048;-76
2023/12/14 06:51:41;;;;;;;12.07;8.60;;;;;;;;;;10309947;28;20071;-76
2023/12/14 06:56:37;;;;;;;12.18;8.70;;;;;;;;;;10290636;28;20128;-76
2023/12/14 07:01:34;;;;;;;10.23;9.10;;;;;;;;;;10297190;28;20692;-76
2023/12/14 07:06:30;;;;;;;12.38;8.50;;;;;;;;;;10289534;28;20072;-75
2023/12/14 07:11:27;;;;;;;11.27;8.90;;;;;;;;;;10292474;28;20444;-75
2023/12/14 07:16:28;;;;;;;11.35;9.32;;;;;;;;;;10305155;28;20076;-74
2023/12/14 07:21:24;;;;;;;11.93;9.05;;;;;;;;;;10283061;28;20425;-76
2023/12/14 07:26:20;;;;;;;12.55;8.98;;;;;;;;;;10297993;28;20053;-75
2023/12/14 07:31:17;;;;;;;11.20;9.38;;;;;;;;;;10272977;28;20081;-75
2023/12/14 07:36:13;;;;;;;10.50;9.10;;;;;;;;;;10304545;28;20499;-75
2023/12/14 07:41:09;;;;;;;12.88;9.63;;;;;;;;;;10308059;28;20527;-76
2023/12/14 07:46:06;;;;;;;10.70;8.73;;;;;;;;;;10306266;28;20535;-76
2023/12/14 07:51:02;;;;;;;12.38;8.55;;;;;;;;;;10296684;28;20053;-73
2023/12/14 07:56:02;;;;;;;12.18;9.30;;;;;;;;;;10280538;28;20108;-75
2023/12/14 08:00:58;;;;;;;9.50;8.02;;;;;;;;;;10303719;28;20087;-75
2023/12/14 08:05:54;;;;;;;11.95;9.05;;;;;;;;;;10282349;28;20076;-75
2023/12/14 08:10:51;;;;;;;13.25;10.18;;;;;;;;;;10286615;28;20535;-75
2023/12/14 08:15:47;;;;;;;12.20;9.77;;;;;;;;;;10291401;28;20075;-75
2023/12/14 08:20:43;;;;;;;10.73;9.57;;;;;;;;;;10300985;28;20110;-74
2023/12/14 08:25:40;;;;;;;12.05;9.93;;;;;;;;;;10300894;28;20052;-75
2023/12/14 08:30:38;;;;;;;12.52;9.50;;;;;;;;;;10309482;28;20048;-75
2023/12/14 08:35:36;;;;;;;11.10;10.00;;;;;;;;;;10290532;28;20045;-76
2023/12/14 08:40:32;;;;;;;12.13;10.23;;;;;;;;;;10307485;28;20041;-74
2023/12/14 08:45:29;;;;;;;11.68;9.55;;;;;;;;;;10306036;28;20056;-75
2023/12/14 08:50:28;;;;;;;10.00;9.00;;;;;;;;;;10277989;28;20060;-75
2023/12/14 08:55:25;;;;;;;12.27;9.70;;;;;;;;;;10285823;28;20109;-76
2023/12/14 09:00:21;;;;;;;13.63;10.13;;;;;;;;;;10305608;28;20114;-75
2023/12/14 09:05:19;;;;;;;11.40;9.20;;;;;;;;;;10306080;28;20060;-75
2023/12/14 09:10:16;;;;;;;11.88;9.43;;;;;;;;;;10290094;28;20386;-74
2023/12/14 09:15:12;;;;;;;10.65;9.50;;;;;;;;;;10311732;28;20500;-75
2023/12/14 09:20:09;;;;;;;11.02;9.82;;;;;;;;;;10309951;28;20045;-75
2023/12/14 09:25:06;;;;;;;9.68;8.70;;;;;;;;;;10312782;28;20053;-74
2023/12/14 09:30:02;;;;;;;14.85;10.55;;;;;;;;;;10309927;28;20128;-75
2023/12/14 09:34:59;;;;;;;17.15;10.15;;;;;;;;;;10302667;28;20066;-75
2023/12/14 09:39:55;;;;;;;11.50;9.35;;;;;;;;;;10304690;28;20053;-74
2023/12/14 09:44:52;;;;;;;13.88;9.57;;;;;;;;;;10301072;28;20139;-75
2023/12/14 09:49:49;;;;;;;11.43;9.85;;;;;;;;;;10307024;28;20049;-75
2023/12/14 09:54:46;;;;;;;11.75;10.40;;;;;;;;;;10316007;28;20529;-75
2023/12/14 09:59:50;;;;;;;11.10;9.57;;;;;;;;;;10310674;28;20051;-74
2023/12/14 10:04:46;;;;;;;10.88;9.75;;;;;;;;;;10312795;28;20118;-74
2023/12/14 10:09:43;;;;;;;11.63;9.70;;;;;;;;;;10303839;28;20481;-74
2023/12/14 10:14:39;;;;;;;11.45;8.90;;;;;;;;;;10290467;28;20052;-74
2023/12/14 10:19:35;;;;;;;13.43;10.00;;;;;;;;;;10300200;28;20044;-75
2023/12/14 10:24:32;;;;;;;12.52;9.10;;;;;;;;;;10308750;28;20057;-75
2023/12/14 10:29:28;;;;;;;11.07;8.90;;;;;;;;;;10303672;28;20060;-75
2023/12/14 10:34:25;;;;;;;10.32;8.00;;;;;;;;;;10309861;28;20048;-74
2023/12/14 10:39:21;;;;;;;10.73;9.15;;;;;;;;;;10310483;28;20049;-75
2023/12/14 10:44:18;;;;;;;11.75;9.35;;;;;;;;;;10303908;28;20055;-75
2023/12/14 10:49:34;;;;;;;12.18;9.18;;;;;;;;;;10296530;28;20072;-74
2023/12/14 10:54:32;;;;;;;10.30;9.13;;;;;;;;;;10293071;28;20045;-75
2023/12/14 10:59:30;;;;;;;9.43;8.35;;;;;;;;;;10303261;28;20412;-75
2023/12/14 11:04:27;;;;;;;8.68;7.78;;;;;;;;;;10347021;28;20067;-74
2023/12/14 11:09:24;;;;;;;10.32;7.85;;;;;;;;;;10328492;28;20052;-73
2023/12/14 11:14:22;;;;;;;9.27;8.27;;;;;;;;;;10341283;28;20051;-73
2023/12/14 11:19:22;;;;;;;10.00;8.27;;;;;;;;;;10326075;28;20072;-74
2023/12/14 11:24:19;;;;;;;12.60;9.02;;;;;;;;;;10334236;28;20091;-73
2023/12/14 11:29:15;;;;;;;11.45;8.63;;;;;;;;;;10336861;28;20474;-73
2023/12/14 11:34:11;;;;;;;14.32;8.68;;;;;;;;;;10330408;28;20049;-74
2023/12/14 11:39:09;;;;;;;9.20;8.27;;;;;;;;;;10328716;28;20100;-75
2023/12/14 11:44:06;;;;;;;9.38;8.38;;;;;;;;;;10334792;28;20116;-74
2023/12/14 11:49:03;;;;;;;10.02;8.38;;;;;;;;;;10330089;28;20143;-74
2023/12/14 11:54:00;;;;;;;11.90;8.98;;;;;;;;;;10317353;28;20075;-74
2023/12/14 11:58:57;;;;;;;11.50;8.90;;;;;;;;;;10327339;28;21407;-74
2023/12/14 12:03:53;;;;;;;9.77;8.77;;;;;;;;;;10307119;28;20049;-74
2023/12/14 12:08:50;;;;;;;12.77;7.93;;;;;;;;;;10312937;28;20041;-74
2023/12/14 12:13:56;;;;;;;8.65;7.65;;;;;;;;;;10303388;28;20053;-75
2023/12/14 12:18:52;;;;;;;11.75;8.90;;;;;;;;;;10289822;28;20049;-74
2023/12/14 12:23:49;;;;;;;10.38;7.95;;;;;;;;;;10304777;28;20991;-75
2023/12/14 12:28:47;;;;;;;14.55;8.80;;;;;;;;;;10296852;28;20052;-75
2023/12/14 12:33:44;;;;;;;11.95;9.02;;;;;;;;;;10284168;28;20075;-75
2023/12/14 12:38:41;;;;;;;10.50;8.68;;;;;;;;;;10306806;28;20049;-75
2023/12/14 12:43:37;;;;;;;10.73;8.68;;;;;;;;;;10298202;28;20523;-75
2023/12/14 12:48:33;;;;;;;9.52;7.85;;;;;;;;;;10296427;28;20053;-75
2023/12/14 12:53:30;;;;;;;10.18;8.27;;;;;;;;;;10292051;28;20462;-75
2023/12/14 12:58:27;;;;;;;15.98;9.15;;;;;;;;;;10312228;28;20055;-74
2023/12/14 13:03:23;;;;;;;16.83;9.88;;;;;;;;;;10300431;28;20060;-74
2023/12/14 13:08:22;;;;;;;11.85;9.32;;;;;;;;;;10274843;28;20049;-74
2023/12/14 13:13:18;;;;;;;13.98;9.00;;;;;;;;;;10273536;28;20053;-75
2023/12/14 13:18:16;;;;;;;13.55;8.80;;;;;;;;;;10301947;28;20052;-75
2023/12/14 13:23:13;;;;;;;14.07;9.75;;;;;;;;;;10298490;28;20608;-75
2023/12/14 13:28:09;;;;;;;10.48;9.30;;;;;;;;;;10301873;28;20057;-73
2023/12/14 13:33:09;;;;;;;11.70;8.80;;;;;;;;;;10309112;28;20115;-75
2023/12/14 13:38:05;;;;;;;13.85;9.52;;;;;;;;;;10304685;28;20127;-75
2023/12/14 13:43:09;;;;;;;13.75;9.88;;;;;;;;;;10298142;28;20138;-74
2023/12/14 13:48:07;;;;;;;15.90;9.65;;;;;;;;;;10302844;28;20055;-75
2023/12/14 13:53:04;;;;;;;9.80;8.80;;;;;;;;;;10306081;28;20447;-73
2023/12/14 13:58:01;;;;;;;14.32;8.75;;;;;;;;;;10311184;28;20075;-74
2023/12/14 14:02:58;;;;;;;12.68;8.98;;;;;;;;;;10303679;28;20044;-75
2023/12/14 14:07:54;;;;;;;11.90;8.95;;;;;;;;;;10288507;28;20049;-74
2023/12/14 14:12:51;;;;;;;14.35;9.23;;;;;;;;;;10312196;28;20482;-75
2023/12/14 14:17:51;;;;;;;10.50;8.40;;;;;;;;;;10279430;28;20063;-74
2023/12/14 14:22:48;;;;;;;12.88;8.55;;;;;;;;;;10273461;28;20132;-75
2023/12/14 14:27:46;;;;;;;14.13;8.90;;;;;;;;;;10300546;28;20131;-74
2023/12/14 14:32:43;;;;;;;10.32;8.82;;;;;;;;;;10280275;28;20418;-73
2023/12/14 14:37:44;;;;;;;11.90;8.32;;;;;;;;;;10292729;28;20052;-75
2023/12/14 14:42:41;;;;;;;9.83;8.50;;;;;;;;;;10289995;28;20398;-75
2023/12/14 14:47:39;;;;;;;12.15;9.75;;;;;;;;;;10279854;28;20056;-75
2023/12/14 14:52:35;;;;;;;15.30;8.45;;;;;;;;;;10297209;28;20459;-74
2023/12/14 14:57:33;;;;;;;11.80;9.30;;;;;;;;;;10287267;28;20045;-76
2023/12/14 15:02:29;;;;;;;15.60;9.52;;;;;;;;;;10288747;28;20055;-74
2023/12/14 15:07:26;;;;;;;12.55;8.95;;;;;;;;;;10305747;28;20053;-75
2023/12/14 15:12:22;;;;;;;10.05;9.10;;;;;;;;;;10298805;28;20045;-76
2023/12/14 15:17:19;;;;;;;10.40;8.32;;;;;;;;;;10293504;28;20520;-75
2023/12/14 15:22:16;;;;;;;12.82;8.77;;;;;;;;;;10307429;28;20053;-75
2023/12/14 15:27:13;;;;;;;10.95;8.65;;;;;;;;;;10298192;28;20149;-75
2023/12/14 15:32:11;;;;;;;15.25;8.90;;;;;;;;;;10297173;28;20140;-75
2023/12/14 15:37:08;;;;;;;13.10;9.05;;;;;;;;;;10301485;28;20045;-75
2023/12/14 15:42:04;;;;;;;13.68;8.65;;;;;;;;;;10274205;28;20060;-75
2023/12/14 15:47:01;;;;;;;9.52;8.63;;;;;;;;;;10302920;28;20065;-74
2023/12/14 15:51:57;;;;;;;12.88;9.18;;;;;;;;;;10292305;28;20045;-75
2023/12/14 15:56:53;;;;;;;10.43;9.20;;;;;;;;;;10295356;28;20046;-74
2023/12/14 16:01:51;;;;;;;10.60;9.55;;;;;;;;;;10301241;28;20094;-75
2023/12/14 16:06:48;;;;;;;12.65;9.88;;;;;;;;;;10297951;28;20049;-74
2023/12/14 16:11:45;;;;;;;11.40;9.30;;;;;;;;;;10292900;28;20099;-75
2023/12/14 16:16:41;;;;;;;11.57;10.25;;;;;;;;;;10272903;28;20053;-74
2023/12/14 16:21:37;;;;;;;10.48;9.18;;;;;;;;;;10309505;28;20110;-74
2023/12/14 16:26:38;;;;;;;11.48;9.60;;;;;;;;;;10295753;28;20098;-74
2023/12/14 16:31:42;;;;;;;11.00;9.57;;;;;;;;;;10296728;28;20056;-75
2023/12/14 16:36:38;;;;;;;12.55;9.30;;;;;;;;;;10280279;28;20428;-75
2023/12/14 16:41:35;;;;;;;12.90;10.02;;;;;;;;;;10299864;28;20067;-75
2023/12/14 16:46:31;;;;;;;13.55;9.50;;;;;;;;;;10287789;28;20049;-75
2023/12/14 16:51:27;;;;;;;11.10;9.82;;;;;;;;;;10276381;28;20106;-75
2023/12/14 16:56:30;;;;;;;14.65;10.63;;;;;;;;;;10300815;28;20705;-74
2023/12/14 17:01:27;;;;;;;11.57;10.43;;;;;;;;;;10301009;28;20429;-75
2023/12/14 17:06:23;;;;;;;13.77;9.73;;;;;;;;;;10308754;28;20084;-75
2023/12/14 17:11:20;;;;;;;12.93;10.82;;;;;;;;;;10298557;28;20045;-75
2023/12/14 17:16:18;;;;;;;14.93;11.15;;;;;;;;;;10307532;28;20486;-73
2023/12/14 17:21:35;;;;;;;16.55;10.45;;;;;;;;;;10307638;28;20506;-76
2023/12/14 17:26:31;;;;;;;17.20;11.35;;;;;;;;;;10292126;28;20401;-74
2023/12/14 17:31:27;;;;;;;12.38;10.23;;;;;;;;;;10310136;28;20179;-74
2023/12/14 17:36:24;;;;;;;15.65;9.90;;;;;;;;;;10292166;28;20052;-74
2023/12/14 17:41:21;;;;;;;16.58;10.98;;;;;;;;;;10306254;28;20098;-75
2023/12/14 17:46:18;;;;;;;14.23;11.38;;;;;;;;;;10299436;28;20048;-74
2023/12/14 17:51:15;;;;;;;18.38;11.43;;;;;;;;;;10287777;28;20126;-75
2023/12/14 17:56:11;;;;;;;15.68;11.30;;;;;;;;;;10309583;28;20068;-75
2023/12/14 18:01:08;;;;;;;15.90;11.50;;;;;;;;;;10303585;28;20136;-74
2023/12/14 18:06:05;;;;;;;16.60;11.40;;;;;;;;;;10288721;28;20094;-74
2023/12/14 18:11:01;;;;;;;14.43;10.10;;;;;;;;;;10294453;28;20069;-75
2023/12/14 18:15:58;;;;;;;12.82;11.00;;;;;;;;;;10305943;28;20190;-75
2023/12/14 18:20:54;;;;;;;15.07;10.68;;;;;;;;;;10313150;28;20069;-74
2023/12/14 18:25:50;;;;;;;14.75;10.55;;;;;;;;;;10295613;28;20045;-75
2023/12/14 18:30:47;;;;;;;14.10;10.35;;;;;;;;;;10295407;28;20048;-75
2023/12/14 18:35:43;;;;;;;13.82;11.02;;;;;;;;;;10288582;28;20147;-75
2023/12/14 18:40:40;;;;;;;15.13;11.25;;;;;;;;;;10290407;28;20055;-75
2023/12/14 18:45:38;;;;;;;16.45;11.30;;;;;;;;;;10301647;28;20094;-75
2023/12/14 18:50:35;;;;;;;14.75;10.65;;;;;;;;;;10298704;28;20139;-75
2023/12/14 18:55:32;;;;;;;16.30;11.00;;;;;;;;;;10307513;28;20052;-75
2023/12/14 19:00:29;;;;;;;16.35;11.27;;;;;;;;;;10297170;28;20049;-75
2023/12/14 19:05:26;;;;;;;16.42;11.23;;;;;;;;;;10295140;28;20052;-74
2023/12/14 19:10:23;;;;;;;15.52;11.90;;;;;;;;;;10286983;28;20058;-74
2023/12/14 19:15:19;;;;;;;16.02;11.80;;;;;;;;;;10312459;28;20130;-74
2023/12/14 19:20:15;;;;;;;15.85;11.30;;;;;;;;;;10298268;28;20106;-74
2023/12/14 19:25:12;;;;;;;19.60;12.02;;;;;;;;;;10286070;28;20053;-74
2023/12/14 19:30:09;;;;;;;14.93;11.35;;;;;;;;;;10286450;28;20053;-74
2023/12/14 19:35:05;;;;;;;17.45;12.27;;;;;;;;;;10285096;28;20080;-75
2023/12/14 19:40:03;;;;;;;18.48;12.48;;;;;;;;;;10294856;28;20102;-75
2023/12/14 19:45:00;;;;;;;16.67;12.63;;;;;;;;;;10280238;28;20135;-75
2023/12/14 19:49:59;;;;;;;13.73;11.05;;;;;;;;;;10281195;28;20037;-74
2023/12/14 19:54:57;;;;;;;20.40;12.05;;;;;;;;;;10287519;28;20714;-75
2023/12/14 19:59:54;;;;;;;15.65;12.35;;;;;;;;;;10283431;28;20582;-74
2023/12/14 20:04:50;;;;;;;18.13;12.18;;;;;;;;;;10306367;28;20569;-75
2023/12/14 20:09:49;;;;;;;18.77;11.93;;;;;;;;;;10299874;28;20044;-74
2023/12/14 20:14:56;;;;;;;17.38;12.48;;;;;;;;;;10305755;28;20053;-75
2023/12/14 20:19:52;;;;;;;18.35;12.85;;;;;;;;;;10296017;28;20045;-75
2023/12/14 20:24:49;;;;;;;16.92;13.05;;;;;;;;;;10302327;28;20429;-74
2023/12/14 20:29:46;;;;;;;17.42;12.15;;;;;;;;;;10312969;28;20087;-73
2023/12/14 20:34:42;;;;;;;17.92;12.60;;;;;;;;;;10317991;28;20045;-74
2023/12/14 20:39:38;;;;;;;19.60;12.48;;;;;;;;;;10304845;28;20049;-75
2023/12/14 20:44:35;;;;;;;17.35;12.68;;;;;;;;;;10314966;28;20060;-75
2023/12/14 20:49:31;;;;;;;16.13;12.55;;;;;;;;;;10294164;28;20057;-74
2023/12/14 20:54:28;;;;;;;18.05;11.88;;;;;;;;;;10305626;28;20888;-74
2023/12/14 20:59:24;;;;;;;19.10;13.43;;;;;;;;;;10294051;28;20040;-74
2023/12/14 21:04:20;;;;;;;17.00;12.13;;;;;;;;;;10280618;28;20049;-74
2023/12/14 21:09:17;;;;;;;22.45;13.80;;;;;;;;;;10303138;28;20053;-75
2023/12/14 21:14:15;;;;;;;19.55;13.73;;;;;;;;;;10298782;28;20052;-75
2023/12/14 21:19:12;;;;;;;18.90;11.80;;;;;;;;;;10314067;28;20492;-75
2023/12/14 21:24:09;;;;;;;16.20;12.15;;;;;;;;;;10308083;28;20065;-75
2023/12/14 21:29:06;;;;;;;17.42;13.02;;;;;;;;;;10290940;28;20777;-75
2023/12/14 21:34:02;;;;;;;16.13;11.43;;;;;;;;;;10290335;28;20049;-72
2023/12/14 21:38:59;;;;;;;18.08;12.73;;;;;;;;;;10298464;28;20128;-75
2023/12/14 21:43:55;;;;;;;15.27;11.50;;;;;;;;;;10300904;28;20045;-75
2023/12/14 21:48:52;;;;;;;20.48;12.63;;;;;;;;;;10309668;28;20084;-75
2023/12/14 21:53:50;;;;;;;19.95;13.15;;;;;;;;;;10306218;28;20401;-75
2023/12/14 21:58:46;;;;;;;20.10;11.65;;;;;;;;;;10295915;28;20064;-74
2023/12/14 22:03:43;;;;;;;17.88;12.63;;;;;;;;;;10314261;28;20160;-73
2023/12/14 22:08:40;;;;;;;19.73;13.32;;;;;;;;;;10292132;28;20059;-74
2023/12/14 22:13:36;;;;;;;18.88;12.52;;;;;;;;;;10300001;28;20123;-75
2023/12/14 22:18:32;;;;;;;17.98;13.00;;;;;;;;;;10300026;28;20386;-74
2023/12/14 22:23:29;;;;;;;19.30;12.60;;;;;;;;;;10296214;28;20043;-75
2023/12/14 22:28:25;;;;;;;17.42;13.15;;;;;;;;;;10271793;28;20056;-74
2023/12/14 22:33:22;;;;;;;18.88;12.68;;;;;;;;;;10301232;28;20512;-75
2023/12/14 22:38:18;;;;;;;20.40;13.48;;;;;;;;;;10292745;28;20052;-74
2023/12/14 22:43:15;;;;;;;20.30;13.43;;;;;;;;;;10293168;28;20045;-75
2023/12/14 22:48:12;;;;;;;22.17;13.63;;;;;;;;;;10302790;28;20539;-75
2023/12/14 22:53:09;;;;;;;22.65;13.90;;;;;;;;;;10295608;28;20094;-73
2023/12/14 22:58:14;;;;;;;27.40;14.18;;;;;;;;;;10299701;28;20409;-75
2023/12/14 23:03:11;;;;;;;18.48;13.68;;;;;;;;;;10299310;28;20052;-75
2023/12/14 23:08:07;;;;;;;22.02;14.73;;;;;;;;;;10294291;28;20102;-75
2023/12/14 23:13:04;;;;;;;21.63;14.60;;;;;;;;;;10295585;28;20045;-75
2023/12/14 23:18:00;;;;;;;24.42;14.10;;;;;;;;;;10308691;28;20131;-75
2023/12/14 23:22:56;;;;;;;20.15;13.65;;;;;;;;;;10304352;28;20143;-75
2023/12/14 23:27:53;;;;;;;22.92;14.55;;;;;;;;;;10302881;28;20049;-75
2023/12/14 23:32:49;;;;;;;23.75;14.02;;;;;;;;;;10301407;28;20524;-75
2023/12/14 23:37:45;;;;;;;21.20;14.85;;;;;;;;;;10300777;28;20128;-74
2023/12/14 23:42:42;;;;;;;20.10;13.63;;;;;;;;;;10295267;28;20067;-75
2023/12/14 23:47:38;;;;;;;24.90;15.43;;;;;;;;;;10299913;28;20450;-75
2023/12/14 23:52:35;;;;;;;25.20;14.73;;;;;;;;;;10299882;28;20482;-75
2023/12/14 23:57:31;;;;;;;25.42;14.82;;;;;;;;;;10295872;28;20166;-75
